Time;durP1;ratioP1;P1;durP2;ratioP2;P2;SDS_P1;SDS_P2;PMS_P1;PMS_P2;Temp;Humidity;BMP_temperature;BMP_pressure;BME280_temperature;BME280_humidity;BME280_pressure;Samples;Min_cycle;Max_cycle;Signal;HPM_P1;HPM_P2
2022/09/23 00:02:35;;;;;;;;;;;11.40;48.00;;;8.76;55.25;101817.41;12255787;19;20352;-86
2022/09/23 00:06:38;;;;;;;;;;;11.40;48.00;;;8.96;55.28;101859.31;12255935;19;20267;-86
2022/09/23 00:10:39;;;;;;;;;;;11.30;47.90;;;8.91;55.46;101848.19;12253895;19;20350;-86
2022/09/23 00:14:40;;;;;;;;;;;11.30;47.90;;;8.88;55.29;101850.88;12253331;19;19915;-86
2022/09/23 00:18:42;;;;;;;;;;;11.30;47.80;;;8.79;55.57;101838.13;12251887;19;19923;-85
2022/09/23 00:22:44;;;;;;;;;;;11.20;47.70;;;8.76;55.57;101841.69;12252965;19;20325;-86
2022/09/23 00:26:46;;;;;;;;;;;11.20;47.70;;;8.65;55.47;101838.53;12252181;19;19924;-85
2022/09/23 00:30:47;;;;;;;;;;;11.10;47.70;;;8.73;55.39;101860.00;12253488;19;19911;-86
2022/09/23 00:34:50;;;;;;;;;;;11.00;47.70;;;8.57;55.36;101849.19;12250614;19;19979;-85
2022/09/23 00:38:52;;;;;;;;;;;11.00;47.70;;;8.24;55.49;101792.84;12252621;19;20007;-85
2022/09/23 00:42:53;;;;;;;;;;;10.90;47.60;;;8.47;55.52;101845.13;12253178;19;19919;-86
2022/09/23 00:46:55;;;;;;;;;;;10.90;47.60;;;8.29;55.54;101825.66;12254880;19;20258;-86
2022/09/23 00:50:57;;;;;;;;;;;11.20;47.80;;;8.28;55.54;101829.13;12251957;19;19978;-85
2022/09/23 00:55:01;;;;;;;;;;;10.70;47.70;;;8.29;55.60;101837.78;12248864;19;19918;-85
2022/09/23 00:59:03;;;;;;;;;;;10.60;47.60;;;8.09;55.53;101813.19;12250266;19;19918;-85
2022/09/23 01:03:06;;;;;;;;;;;10.90;47.80;;;8.02;55.38;101811.66;12249597;19;19923;-85
2022/09/23 01:07:07;;;;;;;;;;;10.50;47.60;;;8.07;55.35;101832.31;12248753;19;19950;-85
2022/09/23 01:11:28;;;;;;;;;;;10.50;47.70;;;8.06;55.39;101833.22;12250989;19;20235;-85
2022/09/23 01:15:56;;;;;;;;;;;10.40;47.60;;;7.93;55.63;101811.88;12248010;19;19922;-85
2022/09/23 01:20:15;;;;;;;;;;;10.40;47.60;;;7.87;55.54;101812.91;12253671;19;20007;-86
2022/09/23 01:24:29;;;;;;;;;;;10.30;47.60;;;7.87;55.88;101812.06;12249933;19;19914;-85
2022/09/23 01:28:45;;;;;;;;;;;10.20;47.70;;;7.86;55.85;101811.22;12255068;19;20350;-85
2022/09/23 01:33:29;;;;;;;;;;;10.20;47.80;;;7.85;55.83;101806.88;12263738;19;19968;-85
2022/09/23 01:37:33;;;;;;;;;;;10.20;47.90;;;7.65;55.60;101783.16;12262877;19;19919;-85
2022/09/23 01:41:52;;;;;;;;;;;10.20;47.90;;;7.68;55.59;101785.69;12261813;19;19914;-85
2022/09/23 01:45:57;;;;;;;;;;;10.10;47.80;;;7.67;55.67;101796.97;12257043;19;19911;-85
2022/09/23 01:54:33;;;;;;;;;;;10.00;47.70;;;7.64;55.72;101802.25;12259591;19;19974;-85
2022/09/23 01:58:52;;;;;;;;;;;10.00;47.70;;;7.52;55.65;101780.88;12260225;19;20349;-85
2022/09/23 02:20:05;;;;;;;;;;;9.90;48.10;;;7.54;55.81;101773.91;12242307;19;19950;-85
2022/09/23 02:24:38;;;;;;;;;;;9.90;48.10;;;7.54;55.83;101767.84;12252313;19;20264;-85
2022/09/23 02:28:51;;;;;;;;;;;9.90;48.10;;;7.58;55.83;101773.81;12253902;19;20003;-85
2022/09/23 02:33:03;;;;;;;;;;;9.90;48.10;;;7.58;55.97;101774.66;12255739;19;19927;-86
2022/09/23 02:37:27;;;;;;;;;;;9.90;48.00;;;7.59;55.92;101767.72;12254322;19;20340;-86
2022/09/23 02:41:56;;;;;;;;;;;9.90;48.10;;;7.59;55.93;101767.72;12254892;19;20369;-86
2022/09/23 02:45:59;;;;;;;;;;;9.90;48.10;;;7.55;56.07;101761.75;12255387;19;19957;-85
2022/09/23 02:50:00;;;;;;;;;;;9.90;48.20;;;7.49;55.83;101748.91;12257016;19;19910;-85
2022/09/23 02:54:04;;;;;;;;;;;9.90;48.20;;;7.54;55.94;101760.91;12257972;19;19926;-85
2022/09/23 02:58:05;;;;;;;;;;;9.90;48.10;;;7.45;55.74;101736.88;12259068;19;19906;-86
2022/09/23 03:02:20;;;;;;;;;;;9.90;48.00;;;7.52;55.96;101751.44;12255254;19;20271;-85
2022/09/23 03:06:57;;;;;;;;;;;9.90;48.00;;;7.49;56.07;101741.13;12254114;19;19958;-85
2022/09/23 03:11:03;;;;;;;;;;;9.90;48.00;;;7.46;55.82;101754.19;12255926;19;19926;-86
2022/09/23 03:15:14;;;;;;;;;;;9.80;47.90;;;7.42;55.86;101747.38;12251500;19;20341;-86
2022/09/23 03:19:32;;;;;;;;;;;9.80;47.90;;;7.34;55.86;101736.31;12251290;19;19915;-86
2022/09/23 03:23:36;;;;;;;;;;;9.80;48.00;;;7.22;55.77;101703.72;12251539;19;19919;-85
2022/09/23 03:27:41;;;;;;;;;;;9.80;47.90;;;7.22;55.86;101714.94;12253385;19;19915;-86
2022/09/23 03:31:43;;;;;;;;;;;9.70;47.80;;;7.16;55.64;101717.72;12252079;19;19914;-85
2022/09/23 03:40:34;;;;;;;;;;;9.60;47.60;;;6.92;55.91;101694.94;12250800;19;20318;-86
2022/09/23 03:44:38;;;;;;;;;;;9.60;47.70;;;6.89;56.01;101692.44;12248575;19;19953;-86
2022/09/23 03:48:40;;;;;;;;;;;9.50;47.70;;;6.85;56.22;101681.25;12263507;19;19914;-85
2022/09/23 03:52:42;;;;;;;;;;;9.50;47.90;;;7.00;55.95;101701.66;12260881;19;20286;-85
2022/09/23 03:56:43;;;;;;;;;;;9.40;48.00;;;6.62;55.99;101640.28;12252411;19;19923;-86
2022/09/23 04:00:45;;;;;;;;;;;9.40;48.00;;;6.70;55.97;101647.88;12250547;19;19942;-85
2022/09/23 04:04:47;;;;;;;;;;;9.40;48.00;;;6.93;56.01;101692.28;12252508;19;19918;-86
2022/09/23 04:08:48;;;;;;;;;;;9.40;48.00;;;6.63;55.98;101641.97;12251613;19;20400;-86
2022/09/23 04:12:50;;;;;;;;;;;9.40;48.00;;;6.90;56.15;101689.78;12249440;19;19911;-86
2022/09/23 04:16:52;;;;;;;;;;;9.40;48.00;;;6.80;56.08;101664.91;12247845;19;19948;-85
2022/09/23 04:20:58;;;;;;;;;;;9.40;48.00;;;6.86;55.84;101677.78;12248754;19;19918;-85
2022/09/23 04:25:00;;;;;;;;;;;9.40;47.90;;;6.78;55.71;101670.16;12246163;19;19923;-85
2022/09/23 04:29:03;;;;;;;;;;;9.30;47.80;;;6.77;55.91;101672.78;12250657;19;19922;-85
2022/09/23 04:33:05;;;;;;;;;;;9.30;48.00;;;6.56;55.78;101651.66;12243663;19;19951;-85
2022/09/23 04:37:06;;;;;;;;;;;9.70;47.80;;;6.56;55.97;101656.84;12251504;19;20341;-85
2022/09/23 04:41:08;;;;;;;;;;;9.10;47.60;;;6.21;55.97;101616.13;12244657;19;19931;-85
2022/09/23 04:45:10;;;;;;;;;;;9.10;47.60;;;6.36;56.11;101653.84;12244706;19;20400;-86
2022/09/23 04:49:12;;;;;;;;;;;9.30;47.70;;;6.42;56.21;101659.75;12264378;19;19944;-85
2022/09/23 04:53:15;;;;;;;;;;;9.00;47.80;;;6.54;56.08;101691.50;12248255;19;19918;-86
2022/09/23 04:57:17;;;;;;;;;;;9.00;47.90;;;6.52;56.26;101691.53;12248481;19;19921;-86
2022/09/23 05:01:25;;;;;;;;;;;8.90;47.90;;;6.34;56.24;101668.59;12249280;19;19919;-86
2022/09/23 05:05:28;;;;;;;;;;;8.90;48.00;;;6.39;56.31;101677.13;12250075;19;19918;-85
2022/09/23 05:09:30;;;;;;;;;;;8.80;48.00;;;6.33;56.37;101664.31;12250246;19;19935;-86
2022/09/23 05:13:32;;;;;;;;;;;8.80;48.10;;;6.34;56.26;101659.06;12238828;19;19919;-86
2022/09/23 05:17:35;;;;;;;;;;;8.80;48.10;;;6.47;55.96;101677.81;12258487;19;19915;-85
2022/09/23 05:21:37;;;;;;;;;;;8.80;48.10;;;6.48;56.11;101689.03;12260062;19;19928;-85
2022/09/23 05:25:41;;;;;;;;;;;8.80;48.00;;;6.38;55.96;101672.84;12256013;19;19918;-85
2022/09/23 05:29:43;;;;;;;;;;;8.80;47.90;;;6.38;56.13;101673.69;12261601;19;20314;-85
2022/09/23 05:33:50;;;;;;;;;;;8.80;47.90;;;6.26;56.04;101657.53;12256266;19;19915;-85
2022/09/23 05:37:52;;;;;;;;;;;8.80;47.90;;;6.03;56.02;101625.19;12259815;19;19944;-85
2022/09/23 05:41:54;;;;;;;;;;;8.80;47.90;;;6.35;56.02;101675.50;12258448;19;19919;-85
2022/09/23 05:46:06;;;;;;;;;;;8.70;47.90;;;6.35;56.02;101680.69;12254189;19;19911;-85
2022/09/23 05:50:08;;;;;;;;;;;8.80;48.00;;;5.95;56.22;101606.38;12259634;19;19926;-86
2022/09/23 05:54:09;;;;;;;;;;;8.80;48.10;;;6.29;56.06;101658.34;12257482;19;20266;-86
2022/09/23 05:58:11;;;;;;;;;;;9.20;48.30;;;6.15;56.12;101637.03;12248388;19;20343;-85
2022/09/23 06:02:13;;;;;;;;;;;8.80;48.20;;;6.30;56.08;101654.84;12257474;19;19926;-85
2022/09/23 06:06:16;;;;;;;;;;;8.70;48.20;;;6.41;56.15;101667.56;12246824;19;20337;-85
2022/09/23 06:10:18;;;;;;;;;;;8.80;48.30;;;6.27;56.34;101649.75;12251755;19;20274;-84
2022/09/23 06:14:19;;;;;;;;;;;8.80;48.40;;;6.42;56.18;101664.09;12249714;19;19925;-84
2022/09/23 06:18:21;;;;;;;;;;;8.80;48.50;;;6.42;56.21;101653.72;12249345;19;19926;-85
2022/09/23 06:22:23;;;;;;;;;;;8.90;48.60;;;6.54;56.46;101656.03;12252193;19;19914;-84
2022/09/23 06:26:25;;;;;;;;;;;8.90;48.80;;;6.77;56.63;101675.38;12247870;19;19938;-84
2022/09/23 06:30:27;;;;;;;;;;;9.00;49.00;;;6.68;56.56;101626.31;12250102;19;20329;-85
2022/09/23 06:34:28;;;;;;;;;;;9.50;49.40;;;7.18;56.76;101671.75;12242403;19;19945;-85
2022/09/23 06:38:32;;;;;;;;;;;9.40;49.50;;;7.51;56.62;101689.97;12256564;19;19923;-86
2022/09/23 06:42:34;;;;;;;;;;;9.50;49.70;;;7.68;56.52;101677.34;12257526;19;19914;-85
2022/09/23 06:46:35;;;;;;;;;;;9.70;49.80;;;7.80;56.54;101660.53;12253326;19;19925;-86
2022/09/23 06:50:36;;;;;;;;;;;9.90;50.00;;;8.00;56.78;101675.59;12261646;19;19907;-85
2022/09/23 06:54:38;;;;;;;;;;;10.10;50.10;;;8.18;56.52;101664.66;12255027;19;20435;-86
2022/09/23 06:58:40;;;;;;;;;;;10.50;50.30;;;8.26;56.56;101650.53;12257058;19;19961;-86
2022/09/23 07:02:41;;;;;;;;;;;10.40;50.20;;;8.13;56.55;101596.28;12258255;19;20008;-86
2022/09/23 07:06:42;;;;;;;;;;;10.50;50.20;;;8.71;56.56;101674.31;12252030;19;20309;-86
2022/09/23 07:10:50;;;;;;;;;;;10.80;50.40;;;8.47;56.77;101608.25;12245974;19;19919;-85
2022/09/23 07:14:51;;;;;;;;;;;11.30;50.60;;;8.86;56.71;101650.38;12245992;19;19922;-85
2022/09/23 07:18:53;;;;;;;;;;;11.10;50.50;;;8.69;56.58;101612.75;12249818;19;19925;-86
2022/09/23 07:22:55;;;;;;;;;;;11.20;50.50;;;9.19;56.79;101663.16;12251732;19;19970;-86
2022/09/23 07:26:57;;;;;;;;;;;11.80;50.60;;;9.37;56.80;101673.84;12247770;19;20314;-86
2022/09/23 07:31:03;;;;;;;;;;;11.50;50.20;;;9.66;56.94;101704.97;12246166;19;19936;-86
2022/09/23 07:35:05;;;;;;;;;;;11.70;50.00;;;9.81;56.87;101687.91;12250048;19;19919;-85
2022/09/23 07:39:11;;;;;;;;;;;11.90;50.10;;;9.89;56.90;101664.16;12253102;19;19936;-85
2022/09/23 07:43:12;;;;;;;;;;;12.40;50.70;;;9.85;56.81;101629.50;12253668;19;19915;-85
2022/09/23 07:47:16;;;;;;;;;;;12.20;50.60;;;10.13;57.07;101639.75;12254857;19;19927;-88
2022/09/23 07:51:24;;;;;;;;;;;12.40;50.80;;;10.57;57.07;101683.31;12249314;19;19930;-89
2022/09/23 07:55:25;;;;;;;;;;;13.00;51.10;;;10.49;57.00;101620.09;12250715;19;19911;-89
2022/09/23 07:59:27;;;;;;;;;;;12.90;51.00;;;11.24;57.16;101693.63;12249578;19;19915;-89
2022/09/23 08:03:28;;;;;;;;;;;13.10;51.30;;;11.53;57.03;101696.75;12250336;19;19947;-88
2022/09/23 08:07:33;;;;;;;;;;;13.30;51.20;;;11.78;57.11;101685.22;12248651;19;19907;-86
2022/09/23 08:11:38;;;;;;;;;;;13.60;51.40;;;12.09;57.30;101679.44;12231103;19;19906;-86
2022/09/23 08:15:43;;;;;;;;;;;13.90;51.50;;;12.34;57.10;101659.06;12218978;19;20337;-86
2022/09/23 08:19:44;;;;;;;;;;;14.20;51.30;;;12.67;57.12;101660.13;12245835;19;19919;-86
2022/09/23 08:23:46;;;;;;;;;;;14.60;51.40;;;13.09;57.31;101675.47;12244912;19;19926;-86
2022/09/23 08:27:48;;;;;;;;;;;14.80;51.50;;;13.39;57.28;101665.22;12249323;19;19911;-87
2022/09/23 08:31:50;;;;;;;;;;;15.10;51.50;;;13.42;57.04;101620.47;12249349;19;19911;-87
2022/09/23 08:35:52;;;;;;;;;;;15.50;51.30;;;14.05;57.07;101674.00;12245111;19;20031;-87
2022/09/23 08:39:53;;;;;;;;;;;15.80;51.20;;;14.21;57.02;101653.84;12244554;19;19934;-87
2022/09/23 08:44:20;;;;;;;;;;;16.10;51.30;;;14.40;57.03;101643.16;12244597;19;19915;-87
2022/09/23 08:48:35;;;;;;;;;;;16.40;51.10;;;14.76;56.92;101655.16;12253019;19;19925;-87
2022/09/23 08:52:54;;;;;;;;;;;16.60;50.90;;;14.92;56.74;101647.22;12259001;19;19947;-88
2022/09/23 08:56:58;;;;;;;;;;;16.90;50.70;;;15.13;56.56;101645.09;12248270;19;19911;-86
2022/09/23 09:01:21;;;;;;;;;;;17.40;50.70;;;15.30;56.73;101634.41;12242524;19;20249;-86
2022/09/23 09:05:26;;;;;;;;;;;17.30;50.40;;;15.54;56.57;101642.59;12243798;19;19983;-86
2022/09/23 09:09:31;;;;;;;;;;;17.40;50.40;;;15.71;56.37;101654.75;12246937;19;19922;-86
2022/09/23 09:13:42;;;;;;;;;;;17.60;50.40;;;15.84;56.32;101637.25;12245760;19;19915;-86
2022/09/23 09:18:06;;;;;;;;;;;18.10;50.40;;;16.04;56.17;101638.63;12239065;19;20349;-86
2022/09/23 09:22:17;;;;;;;;;;;17.90;50.30;;;16.20;56.32;101633.19;12243422;19;19926;-86
2022/09/23 09:26:33;;;;;;;;;;;18.10;50.30;;;16.26;56.32;101609.09;12238528;19;19943;-87
2022/09/23 09:30:34;;;;;;;;;;;18.20;50.10;;;16.43;55.97;101612.44;12243456;19;20334;-86
2022/09/23 09:34:53;;;;;;;;;;;18.40;50.10;;;16.63;56.11;101624.28;12237144;19;19922;-86
2022/09/23 09:38:57;;;;;;;;;;;18.60;49.90;;;16.66;55.99;101609.13;12245203;19;19978;-86
2022/09/23 09:42:59;;;;;;;;;;;18.70;49.90;;;16.57;56.14;101554.34;12243397;19;20252;-88
2022/09/23 09:47:29;;;;;;;;;;;18.80;49.90;;;17.07;55.91;101605.50;12242693;19;19915;-87
2022/09/23 09:51:30;;;;;;;;;;;19.00;49.90;;;16.89;56.00;101554.81;12246345;19;19919;-88
2022/09/23 09:55:32;;;;;;;;;;;19.10;50.00;;;17.24;55.48;101567.38;12249634;19;19919;-87
2022/09/23 09:59:34;;;;;;;;;;;19.20;49.90;;;17.38;55.84;101566.41;12252710;19;19975;-86
2022/09/23 10:03:40;;;;;;;;;;;19.40;49.60;;;17.71;55.90;101586.94;12248945;19;20558;-87
2022/09/23 10:07:41;;;;;;;;;;;19.60;49.60;;;17.80;55.25;101574.91;12253300;19;19918;-87
2022/09/23 10:12:00;;;;;;;;;;;19.70;50.00;;;17.90;55.60;101574.13;12252553;19;19921;-86
2022/09/23 10:16:03;;;;;;;;;;;19.80;49.30;;;17.99;55.38;101564.69;12250284;19;19922;-86
2022/09/23 10:20:08;;;;;;;;;;;20.00;49.70;;;18.13;55.38;101580.38;12255098;19;20010;-86
2022/09/23 10:24:20;;;;;;;;;;;20.10;48.30;;;18.04;55.67;101543.22;12255302;19;19927;-86
2022/09/23 10:28:37;;;;;;;;;;;20.20;49.00;;;18.43;55.56;101570.28;12252866;19;19922;-86
2022/09/23 10:32:45;;;;;;;;;;;20.30;48.70;;;18.48;55.34;101574.28;12252381;19;19925;-86
2022/09/23 10:37:17;;;;;;;;;;;20.40;48.70;;;18.17;55.04;101506.13;12251119;19;20239;-87
2022/09/23 10:50:32;;;;;;;;;;;20.60;48.40;;;18.64;54.96;101557.25;12253733;19;19921;-86
2022/09/23 10:54:42;;;;;;;;;;;20.60;48.30;;;18.67;54.66;101559.66;12266478;19;19938;-86
2022/09/23 10:59:08;;;;;;;;;;;20.60;48.60;;;18.66;54.90;101542.94;12258144;19;20397;-86
2022/09/23 11:03:25;;;;;;;;;;;20.70;48.10;;;18.86;54.65;101562.63;12251836;19;19919;-86
2022/09/23 11:07:34;;;;;;;;;;;20.80;48.60;;;18.96;54.67;101555.66;12247479;19;19936;-86
2022/09/23 11:12:15;;;;;;;;;;;20.90;48.60;;;19.05;54.44;101546.16;12252630;19;19927;-85
2022/09/23 11:16:40;;;;;;;;;;;21.00;47.60;;;19.09;54.27;101533.50;12251373;19;20333;-86
2022/09/23 11:21:19;;;;;;;;;;;21.00;47.40;;;19.02;54.21;101522.56;12249956;19;20369;-86
2022/09/23 11:25:59;;;;;;;;;;;21.00;47.60;;;19.09;53.91;101530.84;12245961;19;19937;-85
2022/09/23 11:30:10;;;;;;;;;;;21.00;48.50;;;18.88;54.01;101485.75;12249717;19;19907;-85
2022/09/23 11:34:30;;;;;;;;;;;21.10;47.30;;;19.07;53.75;101516.91;12251277;19;19919;-85
2022/09/23 11:38:38;;;;;;;;;;;21.10;46.70;;;19.05;53.84;101513.53;12252512;19;19915;-85
2022/09/23 11:42:57;;;;;;;;;;;21.00;47.30;;;19.08;53.65;101498.25;12252823;19;19923;-86
2022/09/23 11:47:06;;;;;;;;;;;21.00;47.50;;;19.12;53.88;101491.75;12252011;19;19974;-85
2022/09/23 11:51:14;;;;;;;;;;;21.10;47.40;;;19.15;53.58;101488.88;12249790;19;19941;-85
2022/09/23 11:55:21;;;;;;;;;;;21.10;47.80;;;19.15;53.23;101483.56;12250832;19;19919;-85
2022/09/23 11:59:46;;;;;;;;;;;21.10;47.70;;;19.17;53.49;101478.13;12252334;19;19922;-85
2022/09/23 12:04:02;;;;;;;;;;;21.10;47.60;;;19.10;53.36;101455.78;12249793;19;19922;-87
2022/09/23 12:08:28;;;;;;;;;;;21.10;47.40;;;19.10;53.45;101440.72;12242612;19;19919;-87
2022/09/23 12:12:35;;;;;;;;;;;21.30;47.20;;;19.32;53.46;101463.69;12248877;19;19946;-87
2022/09/23 12:16:47;;;;;;;;;;;21.20;47.20;;;19.34;53.29;101458.28;12242675;19;19962;-87
2022/09/23 12:20:58;;;;;;;;;;;21.20;46.50;;;19.39;53.56;101459.59;12243945;19;19922;-87
2022/09/23 12:25:10;;;;;;;;;;;21.30;46.70;;;19.44;53.41;101457.41;12247232;19;20015;-87
2022/09/23 12:29:13;;;;;;;;;;;21.30;46.60;;;19.36;53.58;101425.41;12251881;19;20598;-87
2022/09/23 12:33:29;;;;;;;;;;;21.40;46.60;;;19.40;53.48;101421.53;12248511;19;19917;-87
2022/09/23 12:37:37;;;;;;;;;;;21.40;46.40;;;19.56;53.18;101438.81;12254056;19;19926;-88
2022/09/23 12:41:45;;;;;;;;;;;21.50;46.40;;;19.47;53.21;101416.59;12249233;19;20340;-87
2022/09/23 12:45:46;;;;;;;;;;;21.50;46.10;;;19.51;53.21;101419.81;12245944;19;19927;-87
2022/09/23 12:49:49;;;;;;;;;;;21.50;46.40;;;19.62;53.17;101423.25;12250218;19;19919;-87
2022/09/23 12:53:53;;;;;;;;;;;21.50;46.00;;;19.73;52.95;101430.34;12251891;19;19919;-87
2022/09/23 12:57:54;;;;;;;;;;;21.60;46.10;;;19.71;53.14;101404.94;12266937;19;19926;-87
2022/09/23 13:02:08;;;;;;;;;;;21.70;46.10;;;19.72;53.31;101407.47;12252291;19;19937;-87
2022/09/23 13:10:35;;;;;;;;;;;21.70;46.40;;;19.67;52.73;101391.13;12248916;19;19929;-88
2022/09/23 13:14:38;;;;;;;;;;;21.70;46.10;;;19.59;52.42;101372.31;12246367;19;20333;-87
2022/09/23 13:18:54;;;;;;;;;;;21.70;45.60;;;19.80;52.71;101404.19;12245611;19;19918;-87
2022/09/23 13:23:02;;;;;;;;;;;21.70;45.70;;;19.78;52.50;101401.66;12248375;19;19918;-87
2022/09/23 13:27:11;;;;;;;;;;;21.70;45.50;;;19.72;52.73;101380.97;12254724;19;19910;-87
2022/09/23 13:31:15;;;;;;;;;;;21.70;45.60;;;19.77;52.67;101388.53;12257575;19;20278;-87
2022/09/23 13:35:39;;;;;;;;;;;21.70;45.40;;;19.75;52.55;101379.88;12255454;19;19915;-87
2022/09/23 13:39:41;;;;;;;;;;;21.70;45.40;;;19.69;52.51;101365.34;12255809;19;19914;-87
2022/09/23 13:43:59;;;;;;;;;;;21.70;45.80;;;19.60;52.33;101352.81;12259281;19;19922;-87
2022/09/23 13:48:07;;;;;;;;;;;21.70;45.70;;;19.63;51.90;101349.88;12258163;19;20346;-87
2022/09/23 13:52:25;;;;;;;;;;;21.70;46.40;;;19.74;52.25;101363.13;12257467;19;19919;-87
2022/09/23 13:56:28;;;;;;;;;;;21.70;45.50;;;19.62;52.07;101334.97;12254802;19;19937;-87
2022/09/23 14:00:34;;;;;;;;;;;21.70;45.20;;;19.77;52.46;101357.56;12255319;19;20392;-87
2022/09/23 14:04:35;;;;;;;;;;;21.70;44.80;;;19.68;51.81;101337.13;12255826;19;19914;-88
2022/09/23 14:08:40;;;;;;;;;;;21.70;45.40;;;19.50;51.99;101309.53;12256565;19;19928;-87
2022/09/23 14:12:42;;;;;;;;;;;21.60;45.40;;;19.62;52.01;101325.22;12254933;19;20362;-85
2022/09/23 14:16:43;;;;;;;;;;;21.60;45.10;;;19.28;51.68;101271.59;12253217;19;19911;-86
2022/09/23 14:20:49;;;;;;;;;;;21.60;45.10;;;19.58;51.93;101315.00;12251479;19;19922;-85
2022/09/23 14:24:51;;;;;;;;;;;21.60;45.20;;;19.62;52.12;101311.13;12252874;19;19940;-86
2022/09/23 14:28:52;;;;;;;;;;;21.50;45.00;;;19.50;52.02;101293.63;12255590;19;20242;-85
2022/09/23 14:32:54;;;;;;;;;;;21.60;45.00;;;19.61;51.80;101310.28;12253765;19;19925;-85
2022/09/23 14:41:20;;;;;;;;;;;21.80;44.80;;;19.63;51.96;101313.66;12251864;19;19915;-84
2022/09/23 14:45:25;;;;;;;;;;;21.60;44.30;;;19.62;51.49;101300.53;12249725;19;19935;-85
2022/09/23 14:49:26;;;;;;;;;;;21.50;44.40;;;19.54;51.95;101295.88;12255706;19;19918;-85
2022/09/23 14:53:34;;;;;;;;;;;21.50;44.60;;;19.66;51.55;101307.28;12250404;19;19918;-85
2022/09/23 14:57:37;;;;;;;;;;;21.50;45.30;;;19.60;51.47;101286.56;12259258;19;19936;-85
2022/09/23 15:01:38;;;;;;;;;;;21.50;44.70;;;19.67;51.45;101301.84;12258931;19;19919;-84
2022/09/23 15:05:43;;;;;;;;;;;21.50;45.00;;;19.61;50.97;101283.78;12250419;19;19986;-85
2022/09/23 15:09:44;;;;;;;;;;;21.80;45.00;;;19.66;51.13;101294.88;12251724;19;19919;-84
2022/09/23 15:13:48;;;;;;;;;;;21.50;44.80;;;19.66;51.43;101297.53;12250253;19;19921;-84
2022/09/23 15:17:53;;;;;;;;;;;21.50;44.70;;;19.52;51.73;101265.16;12246590;19;21260;-84
2022/09/23 15:21:56;;;;;;;;;;;21.80;44.80;;;19.38;51.22;101237.19;12251002;19;19919;-85
2022/09/23 15:26:01;;;;;;;;;;;21.60;44.80;;;19.70;51.38;101298.09;12247610;19;19915;-84
2022/09/23 15:30:15;;;;;;;;;;;21.70;44.80;;;19.65;51.04;101292.31;12252465;19;20333;-85
2022/09/23 15:34:19;;;;;;;;;;;21.60;44.80;;;19.57;51.38;101281.53;12260384;19;20289;-85
2022/09/23 15:38:21;;;;;;;;;;;21.70;45.10;;;19.52;51.12;101276.59;12256911;19;19926;-85
2022/09/23 15:42:22;;;;;;;;;;;21.80;45.50;;;19.28;51.22;101245.09;12249392;19;20325;-85
2022/09/23 15:46:28;;;;;;;;;;;21.50;45.50;;;19.46;51.41;101296.50;12249199;19;19922;-85
2022/09/23 15:50:32;;;;;;;;;;;21.40;45.60;;;19.39;51.52;101290.06;12247690;19;19923;-85
2022/09/23 15:54:33;;;;;;;;;;;21.40;45.60;;;19.23;51.51;101281.72;12249178;19;19930;-85
2022/09/23 15:58:34;;;;;;;;;;;21.30;45.60;;;18.81;51.41;101230.50;12250336;19;19923;-85
2022/09/23 16:02:36;;;;;;;;;;;21.40;45.70;;;18.78;51.51;101242.16;12254908;19;19930;-86
2022/09/23 16:06:38;;;;;;;;;;;21.10;45.60;;;18.79;51.45;101270.28;12248051;19;19919;-85
2022/09/23 16:10:41;;;;;;;;;;;21.00;45.60;;;18.74;51.67;101269.78;12254067;19;19927;-85
2022/09/23 16:14:42;;;;;;;;;;;20.80;45.50;;;18.47;51.78;101257.84;12251546;19;20044;-85
2022/09/23 16:18:44;;;;;;;;;;;20.90;45.70;;;18.53;51.74;101275.88;12250676;19;19910;-84
2022/09/23 16:23:03;;;;;;;;;;;20.60;45.60;;;18.15;51.59;101215.47;12246122;19;19914;-84
2022/09/23 16:27:06;;;;;;;;;;;20.60;45.70;;;18.34;51.60;101259.78;12244481;19;19937;-84
2022/09/23 16:31:09;;;;;;;;;;;20.70;45.80;;;18.12;51.74;101237.69;12245193;19;20326;-84
2022/09/23 16:35:11;;;;;;;;;;;20.50;45.70;;;18.25;51.81;101265.78;12243777;19;20318;-84
2022/09/23 16:39:12;;;;;;;;;;;20.20;45.70;;;18.13;51.85;101260.50;12246201;19;19918;-84
2022/09/23 16:43:14;;;;;;;;;;;20.10;45.90;;;17.70;51.80;101192.50;12245466;19;19943;-84
2022/09/23 16:47:15;;;;;;;;;;;20.10;46.00;;;18.06;51.86;101261.09;12246715;19;19967;-84
2022/09/23 16:51:19;;;;;;;;;;;20.00;46.10;;;17.91;51.59;101247.31;12246709;19;19915;-84
2022/09/23 16:55:23;;;;;;;;;;;20.00;46.10;;;17.88;51.59;101260.75;12244193;19;19911;-84
2022/09/23 17:03:38;;;;;;;;;;;20.20;46.10;;;17.68;51.88;101241.09;12250152;19;19919;-84
2022/09/23 17:03:46;;;;;;;;;;;19.80;46.00;;;17.74;51.75;101261.78;12259164;19;19948;-84
2022/09/23 17:07:48;;;;;;;;;;;19.80;46.10;;;17.64;51.80;101248.44;12256473;19;19943;-84
2022/09/23 17:11:58;;;;;;;;;;;20.00;46.20;;;17.54;52.09;101250.09;12257989;19;19922;-84
2022/09/23 17:16:00;;;;;;;;;;;19.60;46.00;;;17.43;51.88;101250.06;12253510;19;19974;-85
2022/09/23 17:20:03;;;;;;;;;;;19.50;46.20;;;17.36;51.89;101246.19;12253771;19;20379;-85
2022/09/23 17:24:05;;;;;;;;;;;19.40;46.10;;;17.30;51.95;101254.59;12255457;19;19915;-85
2022/09/23 17:28:07;;;;;;;;;;;19.30;46.10;;;17.16;51.91;101247.72;12258649;19;19914;-85
2022/09/23 17:32:08;;;;;;;;;;;19.20;46.10;;;17.08;51.80;101248.28;12259915;19;20341;-85
2022/09/23 17:36:12;;;;;;;;;;;19.10;46.00;;;16.98;51.98;101244.63;12257277;19;19908;-86
2022/09/23 17:40:13;;;;;;;;;;;19.00;46.00;;;16.86;51.83;101233.19;12255607;19;19919;-85
2022/09/23 17:44:16;;;;;;;;;;;19.00;46.10;;;16.65;52.06;101232.09;12251987;19;19947;-85
2022/09/23 17:48:18;;;;;;;;;;;18.80;46.10;;;16.47;52.05;101226.34;12258576;19;19910;-85
2022/09/23 17:52:19;;;;;;;;;;;18.70;46.10;;;16.45;52.22;101228.28;12256301;19;19974;-85
2022/09/23 17:56:25;;;;;;;;;;;18.60;46.10;;;16.40;52.25;101235.66;12249856;19;19949;-85
2022/09/23 18:00:27;;;;;;;;;;;18.50;46.20;;;16.40;52.15;101251.47;12252763;19;19918;-85
2022/09/23 18:04:28;;;;;;;;;;;18.40;46.30;;;16.24;51.99;101241.19;12250765;19;19911;-85
2022/09/23 18:08:30;;;;;;;;;;;18.30;46.20;;;16.22;52.14;101253.63;12254439;19;19922;-85
2022/09/23 18:12:32;;;;;;;;;;;18.40;46.30;;;16.00;52.18;101233.22;12253346;19;19982;-85
2022/09/23 18:16:35;;;;;;;;;;;18.10;46.20;;;15.88;52.13;101251.56;12248389;19;19935;-84
2022/09/23 18:20:37;;;;;;;;;;;18.00;46.20;;;15.52;52.07;101196.09;12252174;19;19919;-85
2022/09/23 18:24:40;;;;;;;;;;;17.90;46.20;;;15.71;52.15;101254.47;12253379;19;19914;-85
2022/09/23 18:28:42;;;;;;;;;;;17.80;46.20;;;15.51;52.21;101241.81;12254131;19;19952;-85
2022/09/23 18:32:43;;;;;;;;;;;17.70;46.30;;;15.39;52.42;101232.94;12253965;19;19986;-85
2022/09/23 18:36:45;;;;;;;;;;;17.60;46.30;;;15.08;52.22;101181.56;12248669;19;19926;-86
2022/09/23 18:40:55;;;;;;;;;;;17.50;46.40;;;15.26;52.30;101223.25;12251572;19;19923;-86
2022/09/23 18:44:57;;;;;;;;;;;17.50;46.40;;;15.12;52.29;101217.22;12249164;19;20245;-86
2022/09/23 18:53:18;;;;;;;;;;;17.30;46.50;;;15.05;52.31;101224.69;12251108;19;20337;-86
2022/09/23 18:57:20;;;;;;;;;;;17.20;46.50;;;15.04;52.33;101238.75;12248618;19;19919;-86
2022/09/23 19:01:22;;;;;;;;;;;17.20;46.60;;;14.96;52.29;101234.03;12249633;19;20242;-86
2022/09/23 19:05:24;;;;;;;;;;;17.10;46.60;;;14.88;52.30;101220.53;12246770;19;19985;-86
2022/09/23 19:09:26;;;;;;;;;;;17.00;46.70;;;14.97;52.58;101238.31;12248058;19;19915;-86
2022/09/23 19:13:32;;;;;;;;;;;17.00;46.70;;;14.77;52.45;101209.84;12250654;19;19922;-86
2022/09/23 19:17:33;;;;;;;;;;;16.90;46.80;;;14.59;52.50;101193.50;12250169;19;19922;-86
2022/09/23 19:21:35;;;;;;;;;;;16.90;46.90;;;14.83;52.45;101230.50;12247151;19;19959;-86
2022/09/23 19:25:36;;;;;;;;;;;16.90;46.80;;;14.82;52.44;101231.44;12248949;19;19923;-87